createdAt,value
2023-04-21T00:04:07.630Z,0.67
2023-04-21T00:09:11.473Z,0.75
2023-04-21T00:14:14.551Z,0.77
2023-04-21T00:19:18.247Z,0.90
2023-04-21T00:24:21.179Z,0.99
2023-04-21T00:29:23.961Z,1.07
2023-04-21T00:34:26.834Z,1.10
2023-04-21T00:39:29.497Z,1.17
2023-04-21T00:44:32.339Z,1.19
2023-04-21T00:49:35.319Z,1.27
2023-04-21T00:54:38.364Z,1.41
2023-04-21T00:59:41.315Z,1.61
2023-04-21T01:04:46.270Z,1.81
2023-04-21T01:09:48.916Z,1.96
2023-04-21T01:14:51.687Z,2.15
2023-04-21T01:19:57.912Z,2.39
2023-04-21T01:25:01.795Z,2.80
2023-04-21T01:30:07.856Z,3.11
2023-04-21T01:35:11.373Z,3.36
2023-04-21T01:40:15.124Z,3.40
2023-04-21T01:45:18.066Z,3.63
2023-04-21T01:50:20.897Z,3.81
2023-04-21T01:55:23.746Z,3.90
2023-04-21T02:00:27.102Z,3.85
2023-04-21T02:05:29.845Z,3.78
2023-04-21T02:10:32.646Z,3.79
2023-04-21T02:15:35.423Z,3.84
2023-04-21T02:20:38.292Z,3.98
2023-04-21T02:25:42.632Z,4.06
2023-04-21T02:30:45.591Z,4.09
2023-04-21T02:35:48.432Z,4.34
2023-04-21T02:40:51.430Z,4.64
2023-04-21T02:45:55.301Z,5.02
2023-04-21T02:50:58.213Z,5.43
2023-04-21T02:56:02.917Z,5.62
2023-04-21T03:01:06.857Z,5.80
2023-04-21T03:06:10.794Z,6.11
2023-04-21T03:11:15.190Z,6.13
2023-04-21T03:16:18.389Z,5.99
2023-04-21T03:21:21.155Z,5.71
2023-04-21T03:26:24.458Z,5.82
2023-04-21T03:31:27.379Z,6.23
2023-04-21T03:36:30.258Z,6.56
2023-04-21T03:41:34.319Z,6.76
2023-04-21T03:46:37.232Z,6.73
2023-04-21T03:51:40.012Z,6.72
2023-04-21T03:56:42.829Z,7.09
2023-04-21T04:01:45.896Z,7.41
2023-04-21T04:06:48.785Z,7.92
2023-04-21T04:11:51.541Z,8.48
2023-04-21T04:16:54.322Z,8.42
2023-04-21T04:21:59.256Z,8.62
2023-04-21T04:27:03.746Z,8.52
2023-04-21T04:32:07.076Z,8.74
2023-04-21T04:37:11.489Z,8.94
2023-04-21T04:42:14.797Z,9.45
2023-04-21T04:47:17.819Z,9.81
2023-04-21T04:52:20.607Z,9.94
2023-04-21T04:57:23.397Z,10.11
2023-04-21T05:02:26.337Z,10.18
2023-04-21T05:07:29.297Z,10.37
2023-04-21T05:12:34.916Z,10.68
2023-04-21T05:17:37.486Z,11.00
2023-04-21T05:22:41.103Z,11.11
2023-04-21T05:27:44.083Z,11.31
2023-04-21T05:32:46.807Z,11.51
2023-04-21T05:37:49.695Z,11.65
2023-04-21T05:42:52.496Z,11.23
2023-04-21T05:47:55.592Z,10.96
2023-04-21T05:52:58.527Z,11.14
2023-04-21T05:58:01.257Z,11.45
2023-04-21T06:03:04.441Z,11.58
2023-04-21T06:08:07.528Z,11.72
2023-04-21T06:13:10.202Z,11.08
2023-04-21T06:18:12.938Z,10.42
2023-04-21T06:23:15.773Z,10.16
2023-04-21T06:28:18.659Z,10.00
2023-04-21T06:33:21.431Z,10.16
2023-04-21T06:38:24.490Z,10.46
2023-04-21T06:43:27.282Z,10.64
2023-04-21T06:48:30.649Z,10.76
2023-04-21T06:53:33.443Z,10.89
2023-04-21T06:58:36.268Z,10.81
2023-04-21T07:03:39.087Z,10.68
2023-04-21T07:08:42.155Z,10.58
2023-04-21T07:13:44.830Z,10.37
2023-04-21T07:18:47.686Z,9.96
2023-04-21T07:23:50.687Z,10.11
2023-04-21T07:28:53.789Z,9.79
2023-04-21T07:33:56.682Z,9.85
2023-04-21T07:38:59.413Z,9.86
2023-04-21T07:44:02.094Z,9.84
2023-04-21T07:49:04.878Z,9.86
2023-04-21T07:54:07.647Z,9.83
2023-04-21T07:59:10.644Z,9.78
2023-04-21T08:04:13.580Z,9.65
2023-04-21T08:09:16.472Z,9.71
2023-04-21T08:14:19.453Z,9.74
2023-04-21T08:19:22.731Z,9.53
2023-04-21T08:24:25.863Z,9.45
2023-04-21T08:29:29.150Z,9.75
2023-04-21T08:34:31.921Z,9.67
2023-04-21T08:39:34.683Z,9.80
2023-04-21T08:44:37.958Z,9.94
2023-04-21T08:49:43.005Z,9.91
2023-04-21T08:54:47.832Z,9.87
2023-04-21T08:59:50.712Z,9.96
2023-04-21T09:04:56.056Z,9.90
2023-04-21T09:10:01.573Z,9.81
2023-04-21T09:15:07.611Z,9.86
2023-04-21T09:20:16.205Z,10.01
2023-04-21T09:25:22.767Z,10.14
2023-04-21T09:30:26.033Z,10.24
2023-04-21T09:35:30.433Z,10.09
2023-04-21T09:40:35.040Z,9.93
2023-04-21T09:45:40.490Z,10.46
2023-04-21T09:51:11.428Z,10.64
2023-04-21T09:56:10.568Z,10.43
2023-04-21T10:01:14.792Z,10.68
2023-04-21T10:06:17.712Z,10.77
2023-04-21T10:11:20.687Z,10.40
2023-04-21T10:16:23.682Z,10.46
2023-04-21T10:21:27.264Z,10.35
2023-04-21T10:26:35.941Z,10.06
2023-04-21T10:31:54.783Z,9.78
2023-04-21T10:37:00.237Z,10.20
2023-04-21T10:42:21.214Z,10.52
2023-04-21T10:47:41.752Z,10.55
2023-04-21T10:52:46.604Z,10.71
2023-04-21T10:57:49.743Z,10.96
2023-04-21T11:03:01.504Z,10.56
2023-04-21T11:08:06.115Z,9.84
2023-04-21T11:13:09.050Z,9.45
2023-04-21T11:18:11.898Z,9.15
2023-04-21T11:23:19.235Z,8.97
2023-04-21T11:28:23.253Z,8.85
2023-04-21T11:33:29.715Z,8.74
2023-04-21T11:38:42.202Z,8.68
2023-04-21T11:43:46.611Z,8.56
2023-04-21T11:49:02.395Z,8.50
2023-04-21T11:54:07.145Z,8.37
2023-04-21T11:59:14.750Z,8.20
2023-04-21T12:04:24.183Z,8.19
2023-04-21T12:09:27.789Z,8.09
2023-04-21T12:14:33.874Z,8.15
2023-04-21T12:19:42.624Z,8.59
2023-04-21T12:24:46.336Z,8.33
2023-04-21T12:29:49.225Z,7.96
2023-04-21T12:34:51.980Z,7.78
2023-04-21T12:39:54.779Z,7.64
2023-04-21T12:44:57.498Z,7.63
2023-04-21T12:50:00.336Z,7.60
2023-04-21T12:55:03.161Z,7.51
2023-04-21T13:00:09.289Z,7.20
2023-04-21T13:05:13.869Z,6.97
2023-04-21T13:10:16.668Z,6.68
2023-04-21T13:15:19.456Z,6.37
2023-04-21T13:20:22.745Z,6.44
2023-04-21T13:25:31.417Z,6.22
2023-04-21T13:30:35.473Z,5.69
2023-04-21T13:35:38.873Z,5.38
2023-04-21T13:40:41.686Z,5.03
2023-04-21T13:45:44.505Z,4.67
2023-04-21T13:50:47.688Z,4.57
2023-04-21T13:55:50.582Z,4.36
2023-04-21T14:00:53.314Z,4.21
2023-04-21T14:05:56.925Z,4.13
2023-04-21T14:11:01.324Z,3.89
2023-04-21T14:16:04.420Z,3.76
2023-04-21T14:21:07.273Z,3.59
2023-04-21T14:26:10.180Z,3.54
2023-04-21T14:31:13.067Z,3.53
2023-04-21T14:36:15.983Z,3.34
2023-04-21T14:41:19.178Z,3.14
2023-04-21T14:46:22.342Z,2.85
2023-04-21T14:51:25.150Z,2.79
2023-04-21T14:56:28.146Z,2.50
2023-04-21T15:01:31.178Z,2.32
2023-04-21T15:06:34.082Z,2.22
2023-04-21T15:11:36.835Z,2.30
2023-04-21T15:16:39.815Z,2.28
2023-04-21T15:21:42.746Z,2.34
2023-04-21T15:26:46.813Z,2.30
2023-04-21T15:31:49.604Z,2.16
2023-04-21T15:36:52.560Z,1.91
2023-04-21T15:41:55.542Z,1.76
2023-04-21T15:46:58.475Z,1.63
2023-04-21T15:52:03.113Z,1.56
2023-04-21T15:57:06.380Z,1.51
2023-04-21T16:02:09.826Z,1.45
2023-04-21T16:07:14.441Z,1.18
2023-04-21T16:12:18.193Z,1.10
2023-04-21T16:17:21.698Z,1.08
2023-04-21T16:22:26.150Z,1.00
2023-04-21T16:27:29.014Z,0.89
2023-04-21T16:32:31.883Z,0.72
2023-04-21T16:37:37.471Z,0.48
2023-04-21T16:42:40.175Z,0.45
2023-04-21T16:47:43.375Z,0.46
2023-04-21T16:52:46.568Z,0.51
2023-04-21T16:57:49.479Z,0.52
2023-04-21T17:02:52.490Z,0.49
2023-04-21T17:07:55.449Z,0.48
2023-04-21T17:12:58.209Z,0.40
2023-04-21T17:18:01.597Z,0.32
2023-04-21T17:23:04.600Z,0.44
2023-04-21T17:28:07.490Z,0.45
2023-04-21T17:33:33.036Z,0.39
2023-04-21T17:38:36.001Z,0.29
2023-04-21T17:43:38.904Z,0.07
2023-04-21T17:48:41.744Z,-0.04
2023-04-21T17:53:44.681Z,-0.15
2023-04-21T17:58:47.444Z,-0.25
2023-04-21T18:03:50.484Z,-0.18
2023-04-21T18:08:53.387Z,-0.25
2023-04-21T18:13:56.590Z,-0.33
2023-04-21T18:18:59.450Z,-0.25
2023-04-21T18:24:02.317Z,-0.32
2023-04-21T18:29:05.214Z,-0.36
2023-04-21T18:34:09.101Z,-0.43
2023-04-21T18:39:11.935Z,-0.53
2023-04-21T18:44:16.500Z,-0.68
2023-04-21T18:49:19.390Z,-0.68
2023-04-21T18:54:22.202Z,-0.73
2023-04-21T18:59:25.819Z,-0.68
2023-04-21T19:04:28.715Z,-0.76
2023-04-21T19:09:31.751Z,-0.92
2023-04-21T19:14:45.468Z,-1.02
2023-04-21T19:19:49.934Z,-0.99
2023-04-21T19:24:56.259Z,-0.91
2023-04-21T19:29:59.307Z,-1.01
2023-04-21T19:35:02.120Z,-1.10
2023-04-21T19:40:08.366Z,-1.15
2023-04-21T19:45:11.436Z,-1.12
2023-04-21T19:50:14.179Z,-1.08
2023-04-21T19:55:17.443Z,-1.01
2023-04-21T20:00:20.351Z,-1.11
2023-04-21T20:05:23.125Z,-1.13
2023-04-21T20:10:26.524Z,-1.23
2023-04-21T20:15:29.264Z,-1.37
2023-04-21T20:20:32.088Z,-1.49
2023-04-21T20:25:34.913Z,-1.54
2023-04-21T20:30:37.736Z,-1.70
2023-04-21T20:35:44.254Z,-1.78
2023-04-21T20:40:50.448Z,-1.80
2023-04-21T20:45:53.870Z,-1.89
2023-04-21T20:50:56.834Z,-1.94
2023-04-21T20:56:00.151Z,-2.05
2023-04-21T21:01:03.195Z,-2.17
2023-04-21T21:06:06.209Z,-2.18
2023-04-21T21:11:08.900Z,-2.22
2023-04-21T21:16:11.687Z,-2.21
2023-04-21T21:21:14.387Z,-2.35
2023-04-21T21:26:17.985Z,-2.43
2023-04-21T21:31:20.969Z,-2.56
2023-04-21T21:36:23.673Z,-2.76
2023-04-21T21:41:26.528Z,-2.75
2023-04-21T21:46:29.350Z,-2.76
2023-04-21T21:51:32.818Z,-2.87
2023-04-21T21:56:36.839Z,-2.77
2023-04-21T22:01:39.915Z,-2.69
2023-04-21T22:06:42.786Z,-2.61
2023-04-21T22:11:46.498Z,-2.61
2023-04-21T22:16:50.914Z,-2.69
2023-04-21T22:21:53.694Z,-2.57
2023-04-21T22:26:57.462Z,-2.50
2023-04-21T22:32:00.877Z,-2.55
2023-04-21T22:37:05.938Z,-2.58
2023-04-21T22:42:08.751Z,-2.56
2023-04-21T22:47:12.470Z,-2.66
2023-04-21T22:52:15.463Z,-2.69
2023-04-21T22:57:18.419Z,-2.60
2023-04-21T23:02:21.959Z,-2.45
2023-04-21T23:07:24.913Z,-2.42
2023-04-21T23:12:27.814Z,-2.43
2023-04-21T23:17:31.007Z,-2.28
2023-04-21T23:22:33.744Z,-2.17
2023-04-21T23:27:36.573Z,-2.23
2023-04-21T23:32:39.581Z,-2.11
2023-04-21T23:37:42.468Z,-2.04
2023-04-21T23:42:47.505Z,-2.11
2023-04-21T23:47:50.784Z,-2.13
2023-04-21T23:52:53.681Z,-2.08
2023-04-21T23:57:56.443Z,-2.05
